sensor_id;sensor_type;location;lat;lon;timestamp;temperature;humidity
336;DHT22;156;48.738;9.228;2023-08-12T00:02:33;22.70;1.00
336;DHT22;156;48.738;9.228;2023-08-12T00:05:00;22.60;1.00
336;DHT22;156;48.738;9.228;2023-08-12T00:07:27;22.50;1.00
336;DHT22;156;48.738;9.228;2023-08-12T00:09:55;22.50;1.00
336;DHT22;156;48.738;9.228;2023-08-12T00:12:24;22.60;1.00
336;DHT22;156;48.738;9.228;2023-08-12T00:14:54;22.60;1.00
336;DHT22;156;48.738;9.228;2023-08-12T00:17:23;22.60;1.00
336;DHT22;156;48.738;9.228;2023-08-12T00:19:50;22.50;1.00
336;DHT22;156;48.738;9.228;2023-08-12T00:22:17;22.40;1.00
336;DHT22;156;48.738;9.228;2023-08-12T00:24:44;22.40;1.00
336;DHT22;156;48.738;9.228;2023-08-12T00:27:15;22.40;1.00
336;DHT22;156;48.738;9.228;2023-08-12T00:29:44;22.40;1.00
336;DHT22;156;48.738;9.228;2023-08-12T00:32:11;22.40;1.00
336;DHT22;156;48.738;9.228;2023-08-12T00:34:38;22.40;1.00
336;DHT22;156;48.738;9.228;2023-08-12T00:37:05;22.40;1.00
336;DHT22;156;48.738;9.228;2023-08-12T00:39:32;22.30;1.00
336;DHT22;156;48.738;9.228;2023-08-12T00:41:59;22.40;1.00
336;DHT22;156;48.738;9.228;2023-08-12T00:44:27;22.30;1.00
336;DHT22;156;48.738;9.228;2023-08-12T00:46:54;22.20;1.00
336;DHT22;156;48.738;9.228;2023-08-12T00:49:22;22.20;1.00
336;DHT22;156;48.738;9.228;2023-08-12T00:51:52;22.10;1.00
336;DHT22;156;48.738;9.228;2023-08-12T00:54:21;22.10;1.00
336;DHT22;156;48.738;9.228;2023-08-12T00:56:49;22.10;1.00
336;DHT22;156;48.738;9.228;2023-08-12T00:59:17;22.00;1.00
336;DHT22;156;48.738;9.228;2023-08-12T01:01:47;22.00;1.00
336;DHT22;156;48.738;9.228;2023-08-12T01:04:15;22.00;1.00
336;DHT22;156;48.738;9.228;2023-08-12T01:06:42;21.90;1.00
336;DHT22;156;48.738;9.228;2023-08-12T01:09:09;21.80;1.00
336;DHT22;156;48.738;9.228;2023-08-12T01:11:40;21.80;1.00
336;DHT22;156;48.738;9.228;2023-08-12T01:14:14;21.80;1.00
336;DHT22;156;48.738;9.228;2023-08-12T01:16:47;21.70;1.00
336;DHT22;156;48.738;9.228;2023-08-12T01:19:22;21.70;1.00
336;DHT22;156;48.738;9.228;2023-08-12T01:21:53;21.60;1.00
336;DHT22;156;48.738;9.228;2023-08-12T01:24:25;21.60;1.00
336;DHT22;156;48.738;9.228;2023-08-12T01:26:52;21.50;1.00
336;DHT22;156;48.738;9.228;2023-08-12T01:29:21;21.40;1.00
336;DHT22;156;48.738;9.228;2023-08-12T01:31:51;21.40;1.00
336;DHT22;156;48.738;9.228;2023-08-12T01:34:24;21.30;1.00
336;DHT22;156;48.738;9.228;2023-08-12T01:36:55;21.20;1.00
336;DHT22;156;48.738;9.228;2023-08-12T01:39:28;21.10;1.00
336;DHT22;156;48.738;9.228;2023-08-12T01:41:58;21.00;1.00
336;DHT22;156;48.738;9.228;2023-08-12T01:44:31;20.90;1.00
336;DHT22;156;48.738;9.228;2023-08-12T01:46:59;20.90;1.00
336;DHT22;156;48.738;9.228;2023-08-12T01:49:26;21.20;1.00
336;DHT22;156;48.738;9.228;2023-08-12T01:51:55;20.90;1.00
336;DHT22;156;48.738;9.228;2023-08-12T01:54:26;19.70;1.00
336;DHT22;156;48.738;9.228;2023-08-12T01:57:00;20.70;1.00
336;DHT22;156;48.738;9.228;2023-08-12T01:59:26;20.70;5.40
336;DHT22;156;48.738;9.228;2023-08-12T02:01:53;20.70;9.90
336;DHT22;156;48.738;9.228;2023-08-12T02:04:23;20.70;13.50
336;DHT22;156;48.738;9.228;2023-08-12T02:09:18;20.70;13.30
336;DHT22;156;48.738;9.228;2023-08-12T02:11:47;20.70;13.80
336;DHT22;156;48.738;9.228;2023-08-12T02:14:13;20.70;15.90
336;DHT22;156;48.738;9.228;2023-08-12T02:16:41;20.60;25.40
336;DHT22;156;48.738;9.228;2023-08-12T02:19:08;20.40;46.80
336;DHT22;156;48.738;9.228;2023-08-12T02:21:37;20.20;67.30
336;DHT22;156;48.738;9.228;2023-08-12T02:24:05;20.40;79.90
336;DHT22;156;48.738;9.228;2023-08-12T02:26:32;20.20;81.00
336;DHT22;156;48.738;9.228;2023-08-12T02:29:00;20.20;80.50
336;DHT22;156;48.738;9.228;2023-08-12T02:31:27;20.30;75.80
336;DHT22;156;48.738;9.228;2023-08-12T02:33:54;20.30;73.60
336;DHT22;156;48.738;9.228;2023-08-12T02:36:21;20.40;69.50
336;DHT22;156;48.738;9.228;2023-08-12T02:38:49;20.50;67.60
336;DHT22;156;48.738;9.228;2023-08-12T02:41:16;20.50;68.50
336;DHT22;156;48.738;9.228;2023-08-12T02:43:50;20.50;61.80
336;DHT22;156;48.738;9.228;2023-08-12T02:46:20;20.50;62.30
336;DHT22;156;48.738;9.228;2023-08-12T02:48:48;20.50;62.20
336;DHT22;156;48.738;9.228;2023-08-12T02:51:14;20.50;63.00
336;DHT22;156;48.738;9.228;2023-08-12T02:53:41;20.50;62.50
336;DHT22;156;48.738;9.228;2023-08-12T02:56:11;20.50;64.50
336;DHT22;156;48.738;9.228;2023-08-12T02:58:38;20.50;68.00
336;DHT22;156;48.738;9.228;2023-08-12T03:01:08;20.40;68.80
336;DHT22;156;48.738;9.228;2023-08-12T03:03:36;20.40;71.30
336;DHT22;156;48.738;9.228;2023-08-12T03:06:03;20.40;73.10
336;DHT22;156;48.738;9.228;2023-08-12T03:08:33;20.40;73.40
336;DHT22;156;48.738;9.228;2023-08-12T03:11:00;20.40;73.40
336;DHT22;156;48.738;9.228;2023-08-12T03:13:28;20.40;75.10
336;DHT22;156;48.738;9.228;2023-08-12T03:15:55;20.40;74.00
336;DHT22;156;48.738;9.228;2023-08-12T03:18:22;20.40;73.80
336;DHT22;156;48.738;9.228;2023-08-12T03:20:56;20.40;74.10
336;DHT22;156;48.738;9.228;2023-08-12T03:23:24;20.40;77.30
336;DHT22;156;48.738;9.228;2023-08-12T03:25:51;20.40;74.30
336;DHT22;156;48.738;9.228;2023-08-12T03:31:36;20.30;83.60
336;DHT22;156;48.738;9.228;2023-08-12T03:34:27;20.10;93.10
336;DHT22;156;48.738;9.228;2023-08-12T03:36:56;21.40;94.60
336;DHT22;156;48.738;9.228;2023-08-12T03:39:40;20.00;96.70
336;DHT22;156;48.738;9.228;2023-08-12T03:42:12;20.60;99.90
336;DHT22;156;48.738;9.228;2023-08-12T03:44:55;20.30;99.90
336;DHT22;156;48.738;9.228;2023-08-12T03:47:24;20.80;99.90
336;DHT22;156;48.738;9.228;2023-08-12T03:49:54;20.00;99.60
336;DHT22;156;48.738;9.228;2023-08-12T03:52:25;20.00;96.20
336;DHT22;156;48.738;9.228;2023-08-12T03:54:52;20.20;96.30
336;DHT22;156;48.738;9.228;2023-08-12T03:57:19;20.10;97.30
336;DHT22;156;48.738;9.228;2023-08-12T03:59:46;20.10;97.00
336;DHT22;156;48.738;9.228;2023-08-12T04:02:13;20.10;95.70
336;DHT22;156;48.738;9.228;2023-08-12T04:04:40;20.10;96.60
336;DHT22;156;48.738;9.228;2023-08-12T04:07:09;20.10;97.80
336;DHT22;156;48.738;9.228;2023-08-12T04:09:38;20.00;99.90
336;DHT22;156;48.738;9.228;2023-08-12T04:12:06;19.90;99.90
336;DHT22;156;48.738;9.228;2023-08-12T04:14:33;19.80;99.90
336;DHT22;156;48.738;9.228;2023-08-12T04:16:59;19.70;99.90
336;DHT22;156;48.738;9.228;2023-08-12T04:19:26;19.70;99.90
336;DHT22;156;48.738;9.228;2023-08-12T04:21:53;19.70;99.90
336;DHT22;156;48.738;9.228;2023-08-12T04:24:20;19.80;99.90
336;DHT22;156;48.738;9.228;2023-08-12T04:26:49;19.90;99.90
336;DHT22;156;48.738;9.228;2023-08-12T04:29:15;20.00;99.90
336;DHT22;156;48.738;9.228;2023-08-12T04:31:42;20.00;99.90
336;DHT22;156;48.738;9.228;2023-08-12T04:34:09;20.00;99.90
336;DHT22;156;48.738;9.228;2023-08-12T04:36:36;20.10;99.90
336;DHT22;156;48.738;9.228;2023-08-12T04:39:04;20.00;99.90
336;DHT22;156;48.738;9.228;2023-08-12T04:41:31;20.00;99.90
336;DHT22;156;48.738;9.228;2023-08-12T04:44:00;20.00;99.90
336;DHT22;156;48.738;9.228;2023-08-12T04:46:27;20.00;99.90
336;DHT22;156;48.738;9.228;2023-08-12T04:48:54;19.90;99.90
336;DHT22;156;48.738;9.228;2023-08-12T04:51:21;19.90;99.90
336;DHT22;156;48.738;9.228;2023-08-12T04:53:47;20.20;93.00
336;DHT22;156;48.738;9.228;2023-08-12T04:56:14;20.40;88.60
336;DHT22;156;48.738;9.228;2023-08-12T04:58:41;20.30;89.90
336;DHT22;156;48.738;9.228;2023-08-12T05:01:10;20.40;91.20
336;DHT22;156;48.738;9.228;2023-08-12T05:03:37;20.50;86.70
336;DHT22;156;48.738;9.228;2023-08-12T05:06:04;20.60;93.00
336;DHT22;156;48.738;9.228;2023-08-12T05:08:31;20.50;95.50
336;DHT22;156;48.738;9.228;2023-08-12T05:10:58;20.40;97.30
336;DHT22;156;48.738;9.228;2023-08-12T05:13:25;20.50;99.90
336;DHT22;156;48.738;9.228;2023-08-12T05:15:55;20.40;99.90
336;DHT22;156;48.738;9.228;2023-08-12T05:18:23;20.30;99.90
336;DHT22;156;48.738;9.228;2023-08-12T05:20:51;20.30;99.90
336;DHT22;156;48.738;9.228;2023-08-12T05:23:21;20.40;99.90
336;DHT22;156;48.738;9.228;2023-08-12T05:25:48;20.60;99.90
336;DHT22;156;48.738;9.228;2023-08-12T05:28:14;20.80;99.90
336;DHT22;156;48.738;9.228;2023-08-12T05:30:41;20.90;99.90
336;DHT22;156;48.738;9.228;2023-08-12T05:33:08;21.10;93.00
336;DHT22;156;48.738;9.228;2023-08-12T05:35:47;21.10;96.80
336;DHT22;156;48.738;9.228;2023-08-12T05:38:15;21.10;99.90
336;DHT22;156;48.738;9.228;2023-08-12T05:40:42;21.10;99.90
336;DHT22;156;48.738;9.228;2023-08-12T05:43:09;21.10;99.90
336;DHT22;156;48.738;9.228;2023-08-12T05:45:36;21.30;97.40
336;DHT22;156;48.738;9.228;2023-08-12T05:48:04;21.40;97.00
336;DHT22;156;48.738;9.228;2023-08-12T05:50:31;21.50;93.20
336;DHT22;156;48.738;9.228;2023-08-12T05:52:59;21.40;92.90
336;DHT22;156;48.738;9.228;2023-08-12T05:55:28;21.50;93.70
336;DHT22;156;48.738;9.228;2023-08-12T05:57:55;21.50;93.70
336;DHT22;156;48.738;9.228;2023-08-12T06:00:22;21.60;92.90
336;DHT22;156;48.738;9.228;2023-08-12T06:02:49;21.50;95.90
336;DHT22;156;48.738;9.228;2023-08-12T06:05:16;21.60;98.90
336;DHT22;156;48.738;9.228;2023-08-12T06:07:43;21.70;93.80
336;DHT22;156;48.738;9.228;2023-08-12T06:10:11;20.10;94.60
336;DHT22;156;48.738;9.228;2023-08-12T06:12:38;21.70;97.50
336;DHT22;156;48.738;9.228;2023-08-12T06:15:06;21.70;98.40
336;DHT22;156;48.738;9.228;2023-08-12T06:17:33;21.60;95.90
336;DHT22;156;48.738;9.228;2023-08-12T06:20:00;21.40;90.00
336;DHT22;156;48.738;9.228;2023-08-12T06:22:27;21.30;94.30
336;DHT22;156;48.738;9.228;2023-08-12T06:24:54;21.20;99.90
336;DHT22;156;48.738;9.228;2023-08-12T06:27:22;21.10;99.90
336;DHT22;156;48.738;9.228;2023-08-12T06:29:50;21.10;99.90
336;DHT22;156;48.738;9.228;2023-08-12T06:32:17;21.20;99.90
336;DHT22;156;48.738;9.228;2023-08-12T06:34:43;21.30;99.90
336;DHT22;156;48.738;9.228;2023-08-12T06:37:12;21.40;97.20
336;DHT22;156;48.738;9.228;2023-08-12T06:39:39;21.40;95.80
336;DHT22;156;48.738;9.228;2023-08-12T06:42:06;21.40;94.50
336;DHT22;156;48.738;9.228;2023-08-12T06:44:34;21.50;93.80
336;DHT22;156;48.738;9.228;2023-08-12T06:47:01;21.50;92.20
336;DHT22;156;48.738;9.228;2023-08-12T06:49:30;21.50;90.60
336;DHT22;156;48.738;9.228;2023-08-12T06:52:00;21.50;89.80
336;DHT22;156;48.738;9.228;2023-08-12T06:54:26;21.50;77.80
336;DHT22;156;48.738;9.228;2023-08-12T06:56:53;21.60;77.70
336;DHT22;156;48.738;9.228;2023-08-12T06:59:20;21.70;73.10
336;DHT22;156;48.738;9.228;2023-08-12T07:01:49;21.90;71.10
336;DHT22;156;48.738;9.228;2023-08-12T07:04:16;22.00;67.60
336;DHT22;156;48.738;9.228;2023-08-12T07:06:43;22.10;53.50
336;DHT22;156;48.738;9.228;2023-08-12T07:09:09;22.20;52.90
336;DHT22;156;48.738;9.228;2023-08-12T07:11:36;22.30;37.20
336;DHT22;156;48.738;9.228;2023-08-12T07:14:03;22.60;28.80
336;DHT22;156;48.738;9.228;2023-08-12T07:16:30;22.70;14.70
336;DHT22;156;48.738;9.228;2023-08-12T07:19:00;22.80;2.30
336;DHT22;156;48.738;9.228;2023-08-12T07:21:27;23.00;1.00
336;DHT22;156;48.738;9.228;2023-08-12T07:23:54;23.10;1.00
336;DHT22;156;48.738;9.228;2023-08-12T07:26:21;23.10;1.00
336;DHT22;156;48.738;9.228;2023-08-12T07:28:48;23.10;1.00
336;DHT22;156;48.738;9.228;2023-08-12T07:31:15;23.10;1.00
336;DHT22;156;48.738;9.228;2023-08-12T07:33:42;23.30;1.00
336;DHT22;156;48.738;9.228;2023-08-12T07:36:10;23.40;1.00
336;DHT22;156;48.738;9.228;2023-08-12T07:38:39;23.30;1.00
336;DHT22;156;48.738;9.228;2023-08-12T07:41:06;23.30;1.00
336;DHT22;156;48.738;9.228;2023-08-12T07:43:33;23.40;1.00
336;DHT22;156;48.738;9.228;2023-08-12T07:46:00;23.50;1.00
336;DHT22;156;48.738;9.228;2023-08-12T07:48:27;23.60;1.00
336;DHT22;156;48.738;9.228;2023-08-12T07:50:57;23.70;1.00
336;DHT22;156;48.738;9.228;2023-08-12T07:53:25;23.80;1.00
336;DHT22;156;48.738;9.228;2023-08-12T07:55:52;24.00;1.00
336;DHT22;156;48.738;9.228;2023-08-12T07:58:19;24.10;1.00
336;DHT22;156;48.738;9.228;2023-08-12T08:00:46;24.20;1.00
336;DHT22;156;48.738;9.228;2023-08-12T08:03:13;24.30;1.00
336;DHT22;156;48.738;9.228;2023-08-12T08:05:40;24.50;1.00
336;DHT22;156;48.738;9.228;2023-08-12T08:08:07;24.60;1.00
336;DHT22;156;48.738;9.228;2023-08-12T08:10:36;24.90;1.00
336;DHT22;156;48.738;9.228;2023-08-12T08:13:03;24.80;1.00
336;DHT22;156;48.738;9.228;2023-08-12T08:15:30;25.10;1.00
336;DHT22;156;48.738;9.228;2023-08-12T08:17:57;25.20;1.00
336;DHT22;156;48.738;9.228;2023-08-12T08:20:24;25.30;1.00
336;DHT22;156;48.738;9.228;2023-08-12T08:22:51;25.40;1.00
336;DHT22;156;48.738;9.228;2023-08-12T08:25:20;25.50;1.00
336;DHT22;156;48.738;9.228;2023-08-12T08:27:49;25.60;1.00
336;DHT22;156;48.738;9.228;2023-08-12T08:30:16;25.70;1.00
336;DHT22;156;48.738;9.228;2023-08-12T08:32:43;25.50;1.00
336;DHT22;156;48.738;9.228;2023-08-12T08:35:12;25.50;1.00
336;DHT22;156;48.738;9.228;2023-08-12T08:37:39;25.50;1.00
336;DHT22;156;48.738;9.228;2023-08-12T08:40:07;25.70;1.00
336;DHT22;156;48.738;9.228;2023-08-12T08:42:34;25.70;1.00
336;DHT22;156;48.738;9.228;2023-08-12T08:45:05;25.80;1.00
336;DHT22;156;48.738;9.228;2023-08-12T08:47:34;26.00;1.00
336;DHT22;156;48.738;9.228;2023-08-12T08:50:03;26.10;1.00
336;DHT22;156;48.738;9.228;2023-08-12T08:52:31;26.20;1.00
336;DHT22;156;48.738;9.228;2023-08-12T08:55:00;26.30;1.00
336;DHT22;156;48.738;9.228;2023-08-12T08:57:27;26.40;1.00
336;DHT22;156;48.738;9.228;2023-08-12T08:59:55;26.40;1.00
336;DHT22;156;48.738;9.228;2023-08-12T09:02:24;26.60;1.00
336;DHT22;156;48.738;9.228;2023-08-12T09:04:51;26.60;1.00
336;DHT22;156;48.738;9.228;2023-08-12T09:07:19;26.60;1.00
336;DHT22;156;48.738;9.228;2023-08-12T09:09:52;26.70;1.00
336;DHT22;156;48.738;9.228;2023-08-12T09:12:21;26.70;1.00
336;DHT22;156;48.738;9.228;2023-08-12T09:14:49;26.80;1.00
336;DHT22;156;48.738;9.228;2023-08-12T09:17:16;26.90;1.00
336;DHT22;156;48.738;9.228;2023-08-12T09:19:44;26.80;1.00
336;DHT22;156;48.738;9.228;2023-08-12T09:22:12;27.00;1.00
336;DHT22;156;48.738;9.228;2023-08-12T09:24:39;27.20;1.00
336;DHT22;156;48.738;9.228;2023-08-12T09:27:06;27.30;1.00
336;DHT22;156;48.738;9.228;2023-08-12T09:29:33;27.40;1.00
336;DHT22;156;48.738;9.228;2023-08-12T09:32:10;27.40;1.00
336;DHT22;156;48.738;9.228;2023-08-12T09:34:37;27.40;1.00
336;DHT22;156;48.738;9.228;2023-08-12T09:37:11;27.50;1.00
336;DHT22;156;48.738;9.228;2023-08-12T09:39:38;27.70;1.00
336;DHT22;156;48.738;9.228;2023-08-12T09:42:05;27.80;1.00
336;DHT22;156;48.738;9.228;2023-08-12T09:44:34;27.90;1.00
336;DHT22;156;48.738;9.228;2023-08-12T09:47:01;27.90;1.00
336;DHT22;156;48.738;9.228;2023-08-12T09:49:28;28.00;1.00
336;DHT22;156;48.738;9.228;2023-08-12T09:51:55;28.10;1.00
336;DHT22;156;48.738;9.228;2023-08-12T09:54:26;28.30;1.00
336;DHT22;156;48.738;9.228;2023-08-12T09:56:57;28.60;1.00
336;DHT22;156;48.738;9.228;2023-08-12T09:59:30;28.60;1.00
336;DHT22;156;48.738;9.228;2023-08-12T10:01:58;28.20;1.00
336;DHT22;156;48.738;9.228;2023-08-12T10:04:28;28.20;1.00
336;DHT22;156;48.738;9.228;2023-08-12T10:06:55;28.20;1.00
336;DHT22;156;48.738;9.228;2023-08-12T10:09:24;28.20;1.00
336;DHT22;156;48.738;9.228;2023-08-12T10:11:52;28.30;1.00
336;DHT22;156;48.738;9.228;2023-08-12T10:14:20;28.30;1.00
336;DHT22;156;48.738;9.228;2023-08-12T10:16:48;28.40;1.00
336;DHT22;156;48.738;9.228;2023-08-12T10:19:16;28.40;1.00
336;DHT22;156;48.738;9.228;2023-08-12T10:21:44;28.20;1.00
336;DHT22;156;48.738;9.228;2023-08-12T10:24:13;28.10;1.00
336;DHT22;156;48.738;9.228;2023-08-12T10:26:43;28.10;1.00
336;DHT22;156;48.738;9.228;2023-08-12T10:29:11;28.40;1.00
336;DHT22;156;48.738;9.228;2023-08-12T10:31:38;28.50;1.00
336;DHT22;156;48.738;9.228;2023-08-12T10:34:18;28.50;1.00
336;DHT22;156;48.738;9.228;2023-08-12T10:36:45;28.60;1.00
336;DHT22;156;48.738;9.228;2023-08-12T10:39:13;28.70;1.00
336;DHT22;156;48.738;9.228;2023-08-12T10:41:51;28.40;1.00
336;DHT22;156;48.738;9.228;2023-08-12T10:44:20;28.00;1.00
336;DHT22;156;48.738;9.228;2023-08-12T10:46:52;28.10;1.00
336;DHT22;156;48.738;9.228;2023-08-12T10:49:21;28.20;1.00
336;DHT22;156;48.738;9.228;2023-08-12T10:51:49;28.40;1.00
336;DHT22;156;48.738;9.228;2023-08-12T10:54:20;28.40;1.00
336;DHT22;156;48.738;9.228;2023-08-12T10:57:10;28.10;1.00
336;DHT22;156;48.738;9.228;2023-08-12T10:59:48;27.90;1.00
336;DHT22;156;48.738;9.228;2023-08-12T11:02:16;28.00;1.00
336;DHT22;156;48.738;9.228;2023-08-12T11:04:43;27.80;1.00
336;DHT22;156;48.738;9.228;2023-08-12T11:07:15;27.80;1.00
336;DHT22;156;48.738;9.228;2023-08-12T11:09:52;28.20;1.00
336;DHT22;156;48.738;9.228;2023-08-12T11:12:29;28.30;1.00
336;DHT22;156;48.738;9.228;2023-08-12T11:15:01;28.50;1.00
336;DHT22;156;48.738;9.228;2023-08-12T11:17:33;28.40;1.00
336;DHT22;156;48.738;9.228;2023-08-12T11:20:04;28.40;1.00
336;DHT22;156;48.738;9.228;2023-08-12T11:22:32;28.30;1.00
336;DHT22;156;48.738;9.228;2023-08-12T11:25:00;28.30;1.00
336;DHT22;156;48.738;9.228;2023-08-12T11:27:36;28.40;1.00
336;DHT22;156;48.738;9.228;2023-08-12T11:30:04;28.70;1.00
336;DHT22;156;48.738;9.228;2023-08-12T11:32:31;28.80;1.00
336;DHT22;156;48.738;9.228;2023-08-12T11:34:59;28.70;1.00
336;DHT22;156;48.738;9.228;2023-08-12T11:37:26;28.70;1.00
336;DHT22;156;48.738;9.228;2023-08-12T11:39:53;28.90;1.00
336;DHT22;156;48.738;9.228;2023-08-12T11:42:20;28.80;1.00
336;DHT22;156;48.738;9.228;2023-08-12T11:44:48;29.10;1.00
336;DHT22;156;48.738;9.228;2023-08-12T11:47:15;28.70;1.00
336;DHT22;156;48.738;9.228;2023-08-12T11:49:42;28.80;1.00
336;DHT22;156;48.738;9.228;2023-08-12T11:52:10;29.10;1.00
336;DHT22;156;48.738;9.228;2023-08-12T11:54:37;29.20;1.00
336;DHT22;156;48.738;9.228;2023-08-12T11:57:05;29.40;1.00
336;DHT22;156;48.738;9.228;2023-08-12T11:59:32;29.60;1.00
336;DHT22;156;48.738;9.228;2023-08-12T12:02:01;29.50;1.00
336;DHT22;156;48.738;9.228;2023-08-12T12:04:30;29.70;1.00
336;DHT22;156;48.738;9.228;2023-08-12T12:06:57;29.20;1.00
336;DHT22;156;48.738;9.228;2023-08-12T12:09:25;28.90;1.00
336;DHT22;156;48.738;9.228;2023-08-12T12:11:53;29.00;1.00
336;DHT22;156;48.738;9.228;2023-08-12T12:14:21;28.80;1.00
336;DHT22;156;48.738;9.228;2023-08-12T12:16:49;28.60;1.00
336;DHT22;156;48.738;9.228;2023-08-12T12:19:19;28.50;1.00
336;DHT22;156;48.738;9.228;2023-08-12T12:21:48;28.30;1.00
336;DHT22;156;48.738;9.228;2023-08-12T12:24:16;28.30;1.00
336;DHT22;156;48.738;9.228;2023-08-12T12:26:44;27.50;1.00
336;DHT22;156;48.738;9.228;2023-08-12T12:29:12;26.40;1.00
336;DHT22;156;48.738;9.228;2023-08-12T12:31:41;25.60;1.00
336;DHT22;156;48.738;9.228;2023-08-12T12:34:08;24.80;1.00
336;DHT22;156;48.738;9.228;2023-08-12T12:36:37;24.40;26.90
336;DHT22;156;48.738;9.228;2023-08-12T12:39:05;24.10;82.10
336;DHT22;156;48.738;9.228;2023-08-12T12:41:33;23.70;96.50
336;DHT22;156;48.738;9.228;2023-08-12T12:44:00;23.30;99.90
336;DHT22;156;48.738;9.228;2023-08-12T12:46:27;23.10;99.90
336;DHT22;156;48.738;9.228;2023-08-12T12:48:54;23.00;99.90
336;DHT22;156;48.738;9.228;2023-08-12T12:51:21;22.70;99.90
336;DHT22;156;48.738;9.228;2023-08-12T12:53:49;22.50;99.90
336;DHT22;156;48.738;9.228;2023-08-12T12:56:18;22.20;99.90
336;DHT22;156;48.738;9.228;2023-08-12T12:58:44;22.10;99.90
336;DHT22;156;48.738;9.228;2023-08-12T13:01:11;21.90;99.90
336;DHT22;156;48.738;9.228;2023-08-12T13:03:38;21.90;99.90
336;DHT22;156;48.738;9.228;2023-08-12T13:06:08;21.90;99.90
336;DHT22;156;48.738;9.228;2023-08-12T13:08:35;21.80;99.90
336;DHT22;156;48.738;9.228;2023-08-12T13:11:03;21.80;99.90
336;DHT22;156;48.738;9.228;2023-08-12T13:13:30;22.00;99.90
336;DHT22;156;48.738;9.228;2023-08-12T13:15:57;22.10;99.90
336;DHT22;156;48.738;9.228;2023-08-12T13:18:24;22.30;99.90
336;DHT22;156;48.738;9.228;2023-08-12T13:20:51;22.30;99.90
336;DHT22;156;48.738;9.228;2023-08-12T13:23:20;22.30;99.90
336;DHT22;156;48.738;9.228;2023-08-12T13:25:47;22.30;99.90
336;DHT22;156;48.738;9.228;2023-08-12T13:28:15;22.20;99.90
336;DHT22;156;48.738;9.228;2023-08-12T13:30:42;22.20;99.90
336;DHT22;156;48.738;9.228;2023-08-12T13:33:10;22.30;99.90
336;DHT22;156;48.738;9.228;2023-08-12T13:35:37;22.40;99.90
336;DHT22;156;48.738;9.228;2023-08-12T13:38:04;22.50;99.90
336;DHT22;156;48.738;9.228;2023-08-12T13:40:31;22.60;99.90
336;DHT22;156;48.738;9.228;2023-08-12T13:42:58;22.70;99.90
336;DHT22;156;48.738;9.228;2023-08-12T13:45:26;23.10;99.90
336;DHT22;156;48.738;9.228;2023-08-12T13:47:53;23.10;99.90
336;DHT22;156;48.738;9.228;2023-08-12T13:50:20;23.40;99.90
336;DHT22;156;48.738;9.228;2023-08-12T13:52:47;23.80;99.90
336;DHT22;156;48.738;9.228;2023-08-12T13:55:15;24.90;99.90
336;DHT22;156;48.738;9.228;2023-08-12T13:57:42;24.80;99.90
336;DHT22;156;48.738;9.228;2023-08-12T14:00:10;25.50;99.90
336;DHT22;156;48.738;9.228;2023-08-12T14:02:40;26.40;91.60
336;DHT22;156;48.738;9.228;2023-08-12T14:05:07;26.70;46.10
336;DHT22;156;48.738;9.228;2023-08-12T14:07:35;26.60;41.80
336;DHT22;156;48.738;9.228;2023-08-12T14:10:03;26.80;54.30
336;DHT22;156;48.738;9.228;2023-08-12T14:12:31;27.10;2.00
336;DHT22;156;48.738;9.228;2023-08-12T14:14:58;27.60;1.00
336;DHT22;156;48.738;9.228;2023-08-12T14:17:25;27.90;1.00
336;DHT22;156;48.738;9.228;2023-08-12T14:19:53;27.80;1.00
336;DHT22;156;48.738;9.228;2023-08-12T14:22:20;28.00;1.00
336;DHT22;156;48.738;9.228;2023-08-12T14:24:47;28.40;1.00
336;DHT22;156;48.738;9.228;2023-08-12T14:27:14;29.00;1.00
336;DHT22;156;48.738;9.228;2023-08-12T14:29:44;29.80;1.00
336;DHT22;156;48.738;9.228;2023-08-12T14:32:11;30.00;1.00
336;DHT22;156;48.738;9.228;2023-08-12T14:34:41;30.30;1.00
336;DHT22;156;48.738;9.228;2023-08-12T14:37:12;30.40;1.00
336;DHT22;156;48.738;9.228;2023-08-12T14:39:39;30.50;1.00
336;DHT22;156;48.738;9.228;2023-08-12T14:42:06;31.00;1.00
336;DHT22;156;48.738;9.228;2023-08-12T14:44:36;31.30;1.00
336;DHT22;156;48.738;9.228;2023-08-12T14:47:03;31.60;1.00
336;DHT22;156;48.738;9.228;2023-08-12T14:49:30;31.80;1.00
336;DHT22;156;48.738;9.228;2023-08-12T14:51:57;31.70;1.00
336;DHT22;156;48.738;9.228;2023-08-12T14:54:25;31.60;1.00
336;DHT22;156;48.738;9.228;2023-08-12T14:56:52;31.50;1.00
336;DHT22;156;48.738;9.228;2023-08-12T14:59:19;31.60;1.00
336;DHT22;156;48.738;9.228;2023-08-12T15:01:46;31.50;1.00
336;DHT22;156;48.738;9.228;2023-08-12T15:04:13;31.90;1.00
336;DHT22;156;48.738;9.228;2023-08-12T15:06:40;32.00;1.00
336;DHT22;156;48.738;9.228;2023-08-12T15:09:06;31.90;1.00
336;DHT22;156;48.738;9.228;2023-08-12T15:11:36;31.90;1.00
336;DHT22;156;48.738;9.228;2023-08-12T15:14:03;31.90;1.00
336;DHT22;156;48.738;9.228;2023-08-12T15:16:30;31.50;1.00
336;DHT22;156;48.738;9.228;2023-08-12T15:19:02;31.40;1.00
336;DHT22;156;48.738;9.228;2023-08-12T15:21:29;31.20;1.00
336;DHT22;156;48.738;9.228;2023-08-12T15:23:56;31.20;1.00
336;DHT22;156;48.738;9.228;2023-08-12T15:26:23;30.80;1.00
336;DHT22;156;48.738;9.228;2023-08-12T15:28:51;30.60;1.00
336;DHT22;156;48.738;9.228;2023-08-12T15:31:20;30.70;1.00
336;DHT22;156;48.738;9.228;2023-08-12T15:33:47;30.50;1.00
336;DHT22;156;48.738;9.228;2023-08-12T15:36:14;30.10;1.00
336;DHT22;156;48.738;9.228;2023-08-12T15:38:40;29.80;1.00
336;DHT22;156;48.738;9.228;2023-08-12T15:41:12;29.40;1.00
336;DHT22;156;48.738;9.228;2023-08-12T15:43:40;28.60;1.00
336;DHT22;156;48.738;9.228;2023-08-12T15:46:08;28.20;1.00
336;DHT22;156;48.738;9.228;2023-08-12T15:48:35;28.00;1.00
336;DHT22;156;48.738;9.228;2023-08-12T15:51:02;27.70;1.00
336;DHT22;156;48.738;9.228;2023-08-12T15:53:29;27.60;1.00
336;DHT22;156;48.738;9.228;2023-08-12T15:55:56;27.60;1.00
336;DHT22;156;48.738;9.228;2023-08-12T15:58:23;27.50;1.00
336;DHT22;156;48.738;9.228;2023-08-12T16:00:50;27.40;1.00
336;DHT22;156;48.738;9.228;2023-08-12T16:03:19;27.40;1.00
336;DHT22;156;48.738;9.228;2023-08-12T16:05:46;27.30;1.00
336;DHT22;156;48.738;9.228;2023-08-12T16:08:14;27.20;1.00
336;DHT22;156;48.738;9.228;2023-08-12T16:10:41;27.10;1.00
336;DHT22;156;48.738;9.228;2023-08-12T16:13:07;26.90;1.00
336;DHT22;156;48.738;9.228;2023-08-12T16:15:34;26.80;1.00
336;DHT22;156;48.738;9.228;2023-08-12T16:18:01;26.60;1.00
336;DHT22;156;48.738;9.228;2023-08-12T16:20:29;26.30;1.00
336;DHT22;156;48.738;9.228;2023-08-12T16:22:56;26.10;1.00
336;DHT22;156;48.738;9.228;2023-08-12T16:25:23;25.80;14.20
336;DHT22;156;48.738;9.228;2023-08-12T16:27:50;25.50;57.70
336;DHT22;156;48.738;9.228;2023-08-12T16:30:17;25.40;82.60
336;DHT22;156;48.738;9.228;2023-08-12T16:32:44;25.10;99.90
336;DHT22;156;48.738;9.228;2023-08-12T16:35:11;24.90;99.90
336;DHT22;156;48.738;9.228;2023-08-12T16:37:39;24.60;99.90
336;DHT22;156;48.738;9.228;2023-08-12T16:40:08;24.40;99.90
336;DHT22;156;48.738;9.228;2023-08-12T16:42:35;24.20;99.90
336;DHT22;156;48.738;9.228;2023-08-12T16:45:03;23.90;99.90
336;DHT22;156;48.738;9.228;2023-08-12T16:47:30;23.80;99.90
336;DHT22;156;48.738;9.228;2023-08-12T16:49:57;23.50;99.90
336;DHT22;156;48.738;9.228;2023-08-12T16:52:24;23.30;99.90
336;DHT22;156;48.738;9.228;2023-08-12T16:54:53;23.10;99.90
336;DHT22;156;48.738;9.228;2023-08-12T16:57:20;22.90;99.90